首页
METAR-TAF:

METAR-TAF

机场 :

乔治·贝斯特贝尔法斯特城市机场

贝尔法斯特, 北爱尔兰

纬度: 54-36N, 经度: 005-53W, 海拔: 5米

当前天气观测

该预报发布于29分钟前的22:20 UTC
静风
温度 1°C
湿度 86%
气压 1030 hPa
能見度: 7000

METAR: EGAC 022220Z AUTO 00000KT 7000 OVC013/// 01/M01 Q1030

时间: 22:49 (22:49 UTC)

预报

该预报发布于14小时和50分钟前的07:59 UTC
预报有效从02日的 09点(UTC)到 02日的 13点(UTC)
风速5节,风向东转东南
能見度: 6000
多云层高于1200英尺
成为
从 02日的 10点(UTC)到 02日的 13点(UTC)
散云层高于2000英尺

TAF: EGAC 020759Z 0209/0213 12005KT 6000 BKN012 BECMG 0210/0213 SCT020

超过4000个机场的气象观测和天气预报(METAR&TAF报告)。

可查询的气象台以黄色和红色小点在地图上表示。

将鼠标移到小点上方,可查看气象台名称。

然后点击查看天气观测和预报。

如需切换地图:点击带黑十字的绿色按钮放大地图;点击带横线的绿色按钮缩小地图;或者点击绿色箭头查看邻近地区的地图。


METAR-TAF: